sensor_id;sensor_type;location;lat;lon;timestamp;P1;durP1;ratioP1;P2;durP2;ratioP2
1174;SDS011;576;48.418;10.074;2022-12-07T00:01:30;4.17;;;3.83;;
1174;SDS011;576;48.418;10.074;2022-12-07T00:04:00;4.23;;;3.90;;
1174;SDS011;576;48.418;10.074;2022-12-07T00:06:33;4.00;;;3.47;;
1174;SDS011;576;48.418;10.074;2022-12-07T00:09:03;3.20;;;3.00;;
1174;SDS011;576;48.418;10.074;2022-12-07T00:11:32;4.23;;;3.83;;
1174;SDS011;576;48.418;10.074;2022-12-07T00:14:01;3.77;;;3.47;;
1174;SDS011;576;48.418;10.074;2022-12-07T00:16:32;3.43;;;3.13;;
1174;SDS011;576;48.418;10.074;2022-12-07T00:19:01;3.20;;;3.00;;
1174;SDS011;576;48.418;10.074;2022-12-07T00:21:30;3.60;;;3.33;;
1174;SDS011;576;48.418;10.074;2022-12-07T00:24:02;3.53;;;3.23;;
1174;SDS011;576;48.418;10.074;2022-12-07T00:26:32;3.33;;;3.03;;
1174;SDS011;576;48.418;10.074;2022-12-07T00:29:04;3.13;;;2.93;;
1174;SDS011;576;48.418;10.074;2022-12-07T00:31:34;3.80;;;3.50;;
1174;SDS011;576;48.418;10.074;2022-12-07T00:34:05;3.70;;;3.40;;
1174;SDS011;576;48.418;10.074;2022-12-07T00:36:35;3.50;;;3.30;;
1174;SDS011;576;48.418;10.074;2022-12-07T00:39:04;3.07;;;2.87;;
1174;SDS011;576;48.418;10.074;2022-12-07T00:41:32;4.40;;;3.40;;
1174;SDS011;576;48.418;10.074;2022-12-07T00:44:00;4.10;;;3.73;;
1174;SDS011;576;48.418;10.074;2022-12-07T00:46:31;3.20;;;3.00;;
1174;SDS011;576;48.418;10.074;2022-12-07T00:49:00;3.30;;;3.10;;
1174;SDS011;576;48.418;10.074;2022-12-07T00:51:28;3.23;;;3.03;;
1174;SDS011;576;48.418;10.074;2022-12-07T00:53:57;4.00;;;3.60;;
1174;SDS011;576;48.418;10.074;2022-12-07T00:56:26;3.73;;;3.30;;
1174;SDS011;576;48.418;10.074;2022-12-07T00:58:56;3.30;;;3.00;;
1174;SDS011;576;48.418;10.074;2022-12-07T01:01:26;2.80;;;2.60;;
1174;SDS011;576;48.418;10.074;2022-12-07T01:03:56;3.57;;;3.37;;
1174;SDS011;576;48.418;10.074;2022-12-07T01:06:27;3.33;;;3.10;;
1174;SDS011;576;48.418;10.074;2022-12-07T01:08:58;2.90;;;2.70;;
1174;SDS011;576;48.418;10.074;2022-12-07T01:11:27;3.23;;;3.03;;
1174;SDS011;576;48.418;10.074;2022-12-07T01:13:57;3.40;;;3.20;;
1174;SDS011;576;48.418;10.074;2022-12-07T01:16:28;2.80;;;2.60;;
1174;SDS011;576;48.418;10.074;2022-12-07T01:18:59;3.43;;;3.13;;
1174;SDS011;576;48.418;10.074;2022-12-07T01:21:28;4.13;;;3.23;;
1174;SDS011;576;48.418;10.074;2022-12-07T01:24:02;3.40;;;3.20;;
1174;SDS011;576;48.418;10.074;2022-12-07T01:26:32;3.20;;;2.90;;
1174;SDS011;576;48.418;10.074;2022-12-07T01:29:00;3.30;;;3.00;;
1174;SDS011;576;48.418;10.074;2022-12-07T01:31:28;2.93;;;2.73;;
1174;SDS011;576;48.418;10.074;2022-12-07T01:33:57;3.27;;;3.07;;
1174;SDS011;576;48.418;10.074;2022-12-07T01:36:26;3.20;;;3.00;;
1174;SDS011;576;48.418;10.074;2022-12-07T01:38:56;2.93;;;2.73;;
1174;SDS011;576;48.418;10.074;2022-12-07T01:41:28;3.30;;;3.10;;
1174;SDS011;576;48.418;10.074;2022-12-07T01:44:14;3.63;;;3.33;;
1174;SDS011;576;48.418;10.074;2022-12-07T01:46:48;3.20;;;3.00;;
1174;SDS011;576;48.418;10.074;2022-12-07T01:49:20;3.00;;;2.80;;
1174;SDS011;576;48.418;10.074;2022-12-07T01:51:52;3.40;;;3.10;;
1174;SDS011;576;48.418;10.074;2022-12-07T01:54:27;3.10;;;2.90;;
1174;SDS011;576;48.418;10.074;2022-12-07T01:56:57;3.17;;;2.97;;
1174;SDS011;576;48.418;10.074;2022-12-07T01:59:26;3.33;;;3.13;;
1174;SDS011;576;48.418;10.074;2022-12-07T02:01:55;3.13;;;2.93;;
1174;SDS011;576;48.418;10.074;2022-12-07T02:04:24;3.27;;;3.07;;
1174;SDS011;576;48.418;10.074;2022-12-07T02:06:52;2.90;;;2.70;;
1174;SDS011;576;48.418;10.074;2022-12-07T02:09:22;2.63;;;2.43;;
1174;SDS011;576;48.418;10.074;2022-12-07T02:11:50;2.97;;;2.77;;
1174;SDS011;576;48.418;10.074;2022-12-07T02:14:21;2.70;;;2.50;;
1174;SDS011;576;48.418;10.074;2022-12-07T02:16:53;3.87;;;2.30;;
1174;SDS011;576;48.418;10.074;2022-12-07T02:22:45;2.93;;;2.70;;
1174;SDS011;576;48.418;10.074;2022-12-07T02:25:41;2.93;;;2.73;;
1174;SDS011;576;48.418;10.074;2022-12-07T02:28:25;3.33;;;3.13;;
1174;SDS011;576;48.418;10.074;2022-12-07T02:30:58;2.63;;;2.43;;
1174;SDS011;576;48.418;10.074;2022-12-07T02:33:33;3.10;;;2.90;;
1174;SDS011;576;48.418;10.074;2022-12-07T02:36:07;2.80;;;2.60;;
1174;SDS011;576;48.418;10.074;2022-12-07T02:38:43;3.53;;;2.40;;
1174;SDS011;576;48.418;10.074;2022-12-07T02:41:17;2.23;;;2.13;;
1174;SDS011;576;48.418;10.074;2022-12-07T02:43:50;2.50;;;2.30;;
1174;SDS011;576;48.418;10.074;2022-12-07T02:46:23;2.47;;;2.27;;
1174;SDS011;576;48.418;10.074;2022-12-07T02:48:56;2.70;;;2.50;;
1174;SDS011;576;48.418;10.074;2022-12-07T02:51:29;3.00;;;2.80;;
1174;SDS011;576;48.418;10.074;2022-12-07T02:53:58;2.60;;;2.40;;
1174;SDS011;576;48.418;10.074;2022-12-07T02:56:27;2.20;;;2.10;;
1174;SDS011;576;48.418;10.074;2022-12-07T02:59:06;2.70;;;2.50;;
1174;SDS011;576;48.418;10.074;2022-12-07T03:01:47;2.73;;;2.53;;
1174;SDS011;576;48.418;10.074;2022-12-07T03:04:28;2.07;;;1.97;;
1174;SDS011;576;48.418;10.074;2022-12-07T03:07:06;3.33;;;3.03;;
1174;SDS011;576;48.418;10.074;2022-12-07T03:09:48;3.53;;;3.23;;
1174;SDS011;576;48.418;10.074;2022-12-07T03:12:21;2.27;;;2.17;;
1174;SDS011;576;48.418;10.074;2022-12-07T03:14:57;2.40;;;2.30;;
1174;SDS011;576;48.418;10.074;2022-12-07T03:17:31;2.73;;;2.53;;
1174;SDS011;576;48.418;10.074;2022-12-07T03:20:03;2.63;;;2.43;;
1174;SDS011;576;48.418;10.074;2022-12-07T03:22:35;2.50;;;2.30;;
1174;SDS011;576;48.418;10.074;2022-12-07T03:25:08;2.30;;;2.20;;
1174;SDS011;576;48.418;10.074;2022-12-07T03:27:39;2.87;;;2.67;;
1174;SDS011;576;48.418;10.074;2022-12-07T03:30:10;2.37;;;2.20;;
1174;SDS011;576;48.418;10.074;2022-12-07T03:32:43;2.73;;;2.53;;
1174;SDS011;576;48.418;10.074;2022-12-07T03:35:16;3.10;;;2.90;;
1174;SDS011;576;48.418;10.074;2022-12-07T03:37:51;2.67;;;2.47;;
1174;SDS011;576;48.418;10.074;2022-12-07T03:40:23;2.20;;;2.10;;
1174;SDS011;576;48.418;10.074;2022-12-07T03:42:57;2.10;;;2.00;;
1174;SDS011;576;48.418;10.074;2022-12-07T03:45:30;2.40;;;2.30;;
1174;SDS011;576;48.418;10.074;2022-12-07T03:48:07;2.20;;;2.10;;
1174;SDS011;576;48.418;10.074;2022-12-07T03:50:44;2.50;;;2.30;;
1174;SDS011;576;48.418;10.074;2022-12-07T03:53:19;2.60;;;2.43;;
1174;SDS011;576;48.418;10.074;2022-12-07T03:55:51;2.53;;;2.33;;
1174;SDS011;576;48.418;10.074;2022-12-07T03:58:21;2.63;;;2.43;;
1174;SDS011;576;48.418;10.074;2022-12-07T04:00:51;2.43;;;2.33;;
1174;SDS011;576;48.418;10.074;2022-12-07T04:03:21;2.67;;;2.47;;
1174;SDS011;576;48.418;10.074;2022-12-07T04:05:49;2.47;;;2.27;;
1174;SDS011;576;48.418;10.074;2022-12-07T04:08:17;3.00;;;2.80;;
1174;SDS011;576;48.418;10.074;2022-12-07T04:10:46;2.20;;;2.10;;
1174;SDS011;576;48.418;10.074;2022-12-07T04:13:14;2.67;;;2.47;;
1174;SDS011;576;48.418;10.074;2022-12-07T04:15:42;2.43;;;2.30;;
1174;SDS011;576;48.418;10.074;2022-12-07T04:18:10;2.70;;;2.50;;
1174;SDS011;576;48.418;10.074;2022-12-07T04:20:40;2.63;;;2.43;;
1174;SDS011;576;48.418;10.074;2022-12-07T04:23:08;2.03;;;1.93;;
1174;SDS011;576;48.418;10.074;2022-12-07T04:25:36;4.00;;;2.57;;
1174;SDS011;576;48.418;10.074;2022-12-07T04:28:04;2.20;;;2.10;;
1174;SDS011;576;48.418;10.074;2022-12-07T04:30:33;2.70;;;2.50;;
1174;SDS011;576;48.418;10.074;2022-12-07T04:33:01;2.83;;;2.63;;
1174;SDS011;576;48.418;10.074;2022-12-07T04:35:29;2.70;;;2.60;;
1174;SDS011;576;48.418;10.074;2022-12-07T04:37:59;2.57;;;2.37;;
1174;SDS011;576;48.418;10.074;2022-12-07T04:40:27;2.30;;;2.13;;
1174;SDS011;576;48.418;10.074;2022-12-07T04:42:55;2.63;;;2.43;;
1174;SDS011;576;48.418;10.074;2022-12-07T04:45:23;2.57;;;2.43;;
1174;SDS011;576;48.418;10.074;2022-12-07T04:47:51;2.50;;;2.30;;
1174;SDS011;576;48.418;10.074;2022-12-07T04:50:19;2.10;;;1.97;;
1174;SDS011;576;48.418;10.074;2022-12-07T04:52:48;2.63;;;2.47;;
1174;SDS011;576;48.418;10.074;2022-12-07T04:55:18;2.23;;;2.07;;
1174;SDS011;576;48.418;10.074;2022-12-07T04:57:46;2.60;;;2.50;;
1174;SDS011;576;48.418;10.074;2022-12-07T05:00:14;2.90;;;2.37;;
1174;SDS011;576;48.418;10.074;2022-12-07T05:02:43;2.23;;;2.13;;
1174;SDS011;576;48.418;10.074;2022-12-07T05:05:11;2.23;;;2.13;;
1174;SDS011;576;48.418;10.074;2022-12-07T05:07:39;2.27;;;2.13;;
1174;SDS011;576;48.418;10.074;2022-12-07T05:10:08;2.87;;;2.67;;
1174;SDS011;576;48.418;10.074;2022-12-07T05:12:38;2.50;;;2.40;;
1174;SDS011;576;48.418;10.074;2022-12-07T05:15:06;2.47;;;2.27;;
1174;SDS011;576;48.418;10.074;2022-12-07T05:17:34;2.70;;;2.50;;
1174;SDS011;576;48.418;10.074;2022-12-07T05:20:03;2.47;;;2.27;;
1174;SDS011;576;48.418;10.074;2022-12-07T05:22:32;2.40;;;2.20;;
1174;SDS011;576;48.418;10.074;2022-12-07T05:25:00;2.20;;;1.90;;
1174;SDS011;576;48.418;10.074;2022-12-07T05:27:29;2.40;;;2.20;;
1174;SDS011;576;48.418;10.074;2022-12-07T05:29:58;2.23;;;2.13;;
1174;SDS011;576;48.418;10.074;2022-12-07T05:32:27;2.30;;;2.20;;
1174;SDS011;576;48.418;10.074;2022-12-07T05:34:55;2.80;;;2.60;;
1174;SDS011;576;48.418;10.074;2022-12-07T05:37:23;2.90;;;2.70;;
1174;SDS011;576;48.418;10.074;2022-12-07T05:39:51;2.43;;;2.23;;
1174;SDS011;576;48.418;10.074;2022-12-07T05:42:20;2.40;;;2.20;;
1174;SDS011;576;48.418;10.074;2022-12-07T05:44:48;9.73;;;2.40;;
1174;SDS011;576;48.418;10.074;2022-12-07T05:47:17;4.33;;;2.33;;
1174;SDS011;576;48.418;10.074;2022-12-07T05:49:46;2.83;;;2.50;;
1174;SDS011;576;48.418;10.074;2022-12-07T05:52:14;4.10;;;2.70;;
1174;SDS011;576;48.418;10.074;2022-12-07T05:54:42;5.00;;;2.77;;
1174;SDS011;576;48.418;10.074;2022-12-07T05:57:10;2.43;;;2.23;;
1174;SDS011;576;48.418;10.074;2022-12-07T05:59:38;2.33;;;1.97;;
1174;SDS011;576;48.418;10.074;2022-12-07T06:02:07;2.20;;;2.00;;
1174;SDS011;576;48.418;10.074;2022-12-07T06:04:38;1.50;;;1.50;;
1174;SDS011;576;48.418;10.074;2022-12-07T06:07:07;4.97;;;2.40;;
1174;SDS011;576;48.418;10.074;2022-12-07T06:09:36;2.23;;;2.10;;
1174;SDS011;576;48.418;10.074;2022-12-07T06:12:05;2.40;;;2.20;;
1174;SDS011;576;48.418;10.074;2022-12-07T06:14:51;1.97;;;1.87;;
1174;SDS011;576;48.418;10.074;2022-12-07T06:17:20;2.33;;;2.00;;
1174;SDS011;576;48.418;10.074;2022-12-07T06:19:50;2.47;;;2.27;;
1174;SDS011;576;48.418;10.074;2022-12-07T06:22:19;2.57;;;2.37;;
1174;SDS011;576;48.418;10.074;2022-12-07T06:24:47;2.03;;;1.93;;
1174;SDS011;576;48.418;10.074;2022-12-07T06:27:15;1.77;;;1.67;;
1174;SDS011;576;48.418;10.074;2022-12-07T06:29:43;2.80;;;2.30;;
1174;SDS011;576;48.418;10.074;2022-12-07T06:32:11;2.27;;;2.03;;
1174;SDS011;576;48.418;10.074;2022-12-07T06:34:40;2.70;;;2.37;;
1174;SDS011;576;48.418;10.074;2022-12-07T06:37:09;2.90;;;2.70;;
1174;SDS011;576;48.418;10.074;2022-12-07T06:39:37;2.80;;;2.60;;
1174;SDS011;576;48.418;10.074;2022-12-07T06:42:06;2.13;;;2.03;;
1174;SDS011;576;48.418;10.074;2022-12-07T06:44:34;2.37;;;2.17;;
1174;SDS011;576;48.418;10.074;2022-12-07T06:47:02;2.33;;;1.40;;
1174;SDS011;576;48.418;10.074;2022-12-07T06:49:50;2.20;;;2.10;;
1174;SDS011;576;48.418;10.074;2022-12-07T06:52:20;1.80;;;1.70;;
1174;SDS011;576;48.418;10.074;2022-12-07T06:54:48;2.47;;;2.27;;
1174;SDS011;576;48.418;10.074;2022-12-07T06:57:16;2.20;;;2.03;;
1174;SDS011;576;48.418;10.074;2022-12-07T06:59:46;1.93;;;1.83;;
1174;SDS011;576;48.418;10.074;2022-12-07T07:02:14;2.30;;;2.20;;
1174;SDS011;576;48.418;10.074;2022-12-07T07:04:43;2.50;;;2.30;;
1174;SDS011;576;48.418;10.074;2022-12-07T07:07:11;1.80;;;1.70;;
1174;SDS011;576;48.418;10.074;2022-12-07T07:09:41;2.07;;;1.97;;
1174;SDS011;576;48.418;10.074;2022-12-07T07:12:09;1.97;;;1.87;;
1174;SDS011;576;48.418;10.074;2022-12-07T07:14:37;2.10;;;2.00;;
1174;SDS011;576;48.418;10.074;2022-12-07T07:17:05;3.70;;;2.23;;
1174;SDS011;576;48.418;10.074;2022-12-07T07:19:33;1.97;;;1.87;;
1174;SDS011;576;48.418;10.074;2022-12-07T07:22:03;1.90;;;1.80;;
1174;SDS011;576;48.418;10.074;2022-12-07T07:24:31;2.40;;;2.00;;
1174;SDS011;576;48.418;10.074;2022-12-07T07:27:00;2.30;;;2.10;;
1174;SDS011;576;48.418;10.074;2022-12-07T07:29:29;2.13;;;2.03;;
1174;SDS011;576;48.418;10.074;2022-12-07T07:31:57;3.33;;;2.30;;
1174;SDS011;576;48.418;10.074;2022-12-07T07:34:32;2.40;;;2.30;;
1174;SDS011;576;48.418;10.074;2022-12-07T07:37:00;1.93;;;1.80;;
1174;SDS011;576;48.418;10.074;2022-12-07T07:39:28;2.03;;;1.80;;
1174;SDS011;576;48.418;10.074;2022-12-07T07:41:56;1.87;;;1.77;;
1174;SDS011;576;48.418;10.074;2022-12-07T07:44:27;2.10;;;2.00;;
1174;SDS011;576;48.418;10.074;2022-12-07T07:47:00;1.80;;;1.70;;
1174;SDS011;576;48.418;10.074;2022-12-07T07:49:29;1.77;;;1.67;;
1174;SDS011;576;48.418;10.074;2022-12-07T07:51:57;4.60;;;3.03;;
1174;SDS011;576;48.418;10.074;2022-12-07T07:54:25;2.50;;;2.30;;
1174;SDS011;576;48.418;10.074;2022-12-07T07:56:54;2.13;;;2.00;;
1174;SDS011;576;48.418;10.074;2022-12-07T07:59:22;2.50;;;2.03;;
1174;SDS011;576;48.418;10.074;2022-12-07T08:01:52;2.83;;;2.60;;
1174;SDS011;576;48.418;10.074;2022-12-07T08:04:21;2.60;;;2.10;;
1174;SDS011;576;48.418;10.074;2022-12-07T08:06:49;2.30;;;2.10;;
1174;SDS011;576;48.418;10.074;2022-12-07T08:09:18;2.40;;;2.23;;
1174;SDS011;576;48.418;10.074;2022-12-07T08:11:46;2.37;;;2.20;;
1174;SDS011;576;48.418;10.074;2022-12-07T08:14:14;2.80;;;2.03;;
1174;SDS011;576;48.418;10.074;2022-12-07T08:16:42;1.97;;;1.87;;
1174;SDS011;576;48.418;10.074;2022-12-07T08:19:12;3.33;;;2.67;;
1174;SDS011;576;48.418;10.074;2022-12-07T08:21:40;2.47;;;2.03;;
1174;SDS011;576;48.418;10.074;2022-12-07T08:24:08;2.50;;;2.30;;
1174;SDS011;576;48.418;10.074;2022-12-07T08:26:36;3.90;;;2.27;;
1174;SDS011;576;48.418;10.074;2022-12-07T08:29:05;2.10;;;1.90;;
1174;SDS011;576;48.418;10.074;2022-12-07T08:31:33;2.60;;;2.07;;
1174;SDS011;576;48.418;10.074;2022-12-07T08:34:02;2.87;;;2.60;;
1174;SDS011;576;48.418;10.074;2022-12-07T08:36:31;2.30;;;2.10;;
1174;SDS011;576;48.418;10.074;2022-12-07T08:38:59;5.33;;;2.53;;
1174;SDS011;576;48.418;10.074;2022-12-07T08:41:48;2.97;;;2.50;;
1174;SDS011;576;48.418;10.074;2022-12-07T08:44:16;3.30;;;2.37;;
1174;SDS011;576;48.418;10.074;2022-12-07T08:46:44;3.03;;;2.73;;
1174;SDS011;576;48.418;10.074;2022-12-07T08:49:17;3.13;;;2.23;;
1174;SDS011;576;48.418;10.074;2022-12-07T08:51:48;3.10;;;2.30;;
1174;SDS011;576;48.418;10.074;2022-12-07T08:54:17;3.53;;;2.30;;
1174;SDS011;576;48.418;10.074;2022-12-07T08:56:46;2.40;;;2.20;;
1174;SDS011;576;48.418;10.074;2022-12-07T08:59:24;2.23;;;2.13;;
1174;SDS011;576;48.418;10.074;2022-12-07T09:01:52;4.70;;;2.00;;
1174;SDS011;576;48.418;10.074;2022-12-07T09:04:21;2.57;;;2.30;;
1174;SDS011;576;48.418;10.074;2022-12-07T09:06:50;2.83;;;2.30;;
1174;SDS011;576;48.418;10.074;2022-12-07T09:09:19;2.60;;;2.40;;
1174;SDS011;576;48.418;10.074;2022-12-07T09:11:47;2.27;;;2.07;;
1174;SDS011;576;48.418;10.074;2022-12-07T09:14:15;2.30;;;2.10;;
1174;SDS011;576;48.418;10.074;2022-12-07T09:16:45;3.13;;;2.93;;
1174;SDS011;576;48.418;10.074;2022-12-07T09:19:13;3.50;;;2.53;;
1174;SDS011;576;48.418;10.074;2022-12-07T09:21:44;2.70;;;2.50;;
1174;SDS011;576;48.418;10.074;2022-12-07T09:24:14;2.63;;;2.43;;
1174;SDS011;576;48.418;10.074;2022-12-07T09:26:42;3.43;;;2.27;;
1174;SDS011;576;48.418;10.074;2022-12-07T09:29:10;2.27;;;1.90;;
1174;SDS011;576;48.418;10.074;2022-12-07T09:31:39;2.60;;;2.40;;
1174;SDS011;576;48.418;10.074;2022-12-07T09:34:08;5.43;;;1.97;;
1174;SDS011;576;48.418;10.074;2022-12-07T09:36:36;2.60;;;2.40;;
1174;SDS011;576;48.418;10.074;2022-12-07T09:39:04;2.73;;;2.43;;
1174;SDS011;576;48.418;10.074;2022-12-07T09:41:34;2.10;;;1.90;;
1174;SDS011;576;48.418;10.074;2022-12-07T09:44:06;2.27;;;2.10;;
1174;SDS011;576;48.418;10.074;2022-12-07T09:46:38;2.70;;;2.50;;
1174;SDS011;576;48.418;10.074;2022-12-07T09:49:09;2.40;;;2.30;;
1174;SDS011;576;48.418;10.074;2022-12-07T09:51:42;2.53;;;2.40;;
1174;SDS011;576;48.418;10.074;2022-12-07T09:54:11;2.83;;;2.33;;
1174;SDS011;576;48.418;10.074;2022-12-07T09:56:42;2.47;;;2.27;;
1174;SDS011;576;48.418;10.074;2022-12-07T09:59:13;2.30;;;2.10;;
1174;SDS011;576;48.418;10.074;2022-12-07T10:01:46;2.60;;;2.13;;
1174;SDS011;576;48.418;10.074;2022-12-07T10:04:16;2.43;;;2.23;;
1174;SDS011;576;48.418;10.074;2022-12-07T10:06:47;2.17;;;2.03;;
1174;SDS011;576;48.418;10.074;2022-12-07T10:09:18;2.60;;;2.40;;
1174;SDS011;576;48.418;10.074;2022-12-07T10:12:02;2.07;;;1.97;;
1174;SDS011;576;48.418;10.074;2022-12-07T10:14:34;2.50;;;2.30;;
1174;SDS011;576;48.418;10.074;2022-12-07T10:17:29;2.37;;;2.20;;
1174;SDS011;576;48.418;10.074;2022-12-07T10:20:13;4.53;;;2.30;;
1174;SDS011;576;48.418;10.074;2022-12-07T10:22:59;2.40;;;2.20;;
1174;SDS011;576;48.418;10.074;2022-12-07T10:25:31;2.53;;;2.33;;
1174;SDS011;576;48.418;10.074;2022-12-07T10:28:03;5.00;;;2.77;;
1174;SDS011;576;48.418;10.074;2022-12-07T10:30:53;2.80;;;2.60;;
1174;SDS011;576;48.418;10.074;2022-12-07T10:33:33;2.60;;;2.40;;
1174;SDS011;576;48.418;10.074;2022-12-07T10:38:48;2.33;;;2.13;;
1174;SDS011;576;48.418;10.074;2022-12-07T10:41:18;2.67;;;2.30;;
1174;SDS011;576;48.418;10.074;2022-12-07T10:43:52;3.00;;;2.67;;
1174;SDS011;576;48.418;10.074;2022-12-07T10:46:46;2.10;;;2.00;;
1174;SDS011;576;48.418;10.074;2022-12-07T10:49:48;2.47;;;2.27;;
1174;SDS011;576;48.418;10.074;2022-12-07T10:52:33;2.83;;;2.63;;
1174;SDS011;576;48.418;10.074;2022-12-07T10:55:16;3.00;;;2.43;;
1174;SDS011;576;48.418;10.074;2022-12-07T10:57:53;2.97;;;2.63;;
1174;SDS011;576;48.418;10.074;2022-12-07T11:00:31;2.37;;;2.17;;
1174;SDS011;576;48.418;10.074;2022-12-07T11:03:18;2.53;;;2.33;;
1174;SDS011;576;48.418;10.074;2022-12-07T11:06:00;4.20;;;2.67;;
1174;SDS011;576;48.418;10.074;2022-12-07T11:08:44;2.50;;;2.30;;
1174;SDS011;576;48.418;10.074;2022-12-07T11:11:26;2.40;;;2.23;;
1174;SDS011;576;48.418;10.074;2022-12-07T11:14:04;3.30;;;2.70;;
1174;SDS011;576;48.418;10.074;2022-12-07T11:16:48;2.77;;;2.57;;
1174;SDS011;576;48.418;10.074;2022-12-07T11:22:23;2.50;;;1.90;;
1174;SDS011;576;48.418;10.074;2022-12-07T11:25:02;3.60;;;2.07;;
1174;SDS011;576;48.418;10.074;2022-12-07T11:27:43;2.63;;;2.37;;
1174;SDS011;576;48.418;10.074;2022-12-07T11:30:17;2.40;;;2.20;;
1174;SDS011;576;48.418;10.074;2022-12-07T11:32:56;2.13;;;2.03;;
1174;SDS011;576;48.418;10.074;2022-12-07T11:35:38;2.50;;;1.90;;
1174;SDS011;576;48.418;10.074;2022-12-07T11:38:19;2.10;;;1.97;;
1174;SDS011;576;48.418;10.074;2022-12-07T11:40:56;2.67;;;2.10;;
1174;SDS011;576;48.418;10.074;2022-12-07T11:43:43;1.90;;;1.80;;
1174;SDS011;576;48.418;10.074;2022-12-07T11:46:20;3.23;;;2.40;;
1174;SDS011;576;48.418;10.074;2022-12-07T11:48:54;3.80;;;2.10;;
1174;SDS011;576;48.418;10.074;2022-12-07T11:51:29;2.80;;;2.13;;
1174;SDS011;576;48.418;10.074;2022-12-07T11:54:03;2.30;;;2.20;;
1174;SDS011;576;48.418;10.074;2022-12-07T11:56:39;2.40;;;2.17;;
1174;SDS011;576;48.418;10.074;2022-12-07T11:59:09;2.53;;;2.40;;
1174;SDS011;576;48.418;10.074;2022-12-07T12:01:43;2.13;;;2.03;;
1174;SDS011;576;48.418;10.074;2022-12-07T12:04:23;2.30;;;2.13;;
1174;SDS011;576;48.418;10.074;2022-12-07T12:06:59;1.73;;;1.63;;
1174;SDS011;576;48.418;10.074;2022-12-07T12:09:49;2.20;;;2.10;;
1174;SDS011;576;48.418;10.074;2022-12-07T12:12:33;2.17;;;2.00;;
1174;SDS011;576;48.418;10.074;2022-12-07T12:15:44;2.07;;;1.70;;
1174;SDS011;576;48.418;10.074;2022-12-07T12:18:30;2.70;;;1.97;;
1174;SDS011;576;48.418;10.074;2022-12-07T12:21:31;1.83;;;1.73;;
1174;SDS011;576;48.418;10.074;2022-12-07T12:24:00;3.60;;;2.30;;
1174;SDS011;576;48.418;10.074;2022-12-07T12:26:33;2.10;;;1.90;;
1174;SDS011;576;48.418;10.074;2022-12-07T12:29:05;3.10;;;1.70;;
1174;SDS011;576;48.418;10.074;2022-12-07T12:31:36;2.10;;;1.90;;
1174;SDS011;576;48.418;10.074;2022-12-07T12:37:00;2.40;;;1.93;;
1174;SDS011;576;48.418;10.074;2022-12-07T12:39:28;2.50;;;2.00;;
1174;SDS011;576;48.418;10.074;2022-12-07T12:41:57;2.53;;;1.90;;
1174;SDS011;576;48.418;10.074;2022-12-07T12:50:26;1.50;;;1.40;;
1174;SDS011;576;48.418;10.074;2022-12-07T12:53:05;1.97;;;1.83;;
1174;SDS011;576;48.418;10.074;2022-12-07T12:58:43;1.80;;;1.70;;
1174;SDS011;576;48.418;10.074;2022-12-07T13:07:09;1.50;;;1.40;;
1174;SDS011;576;48.418;10.074;2022-12-07T13:09:43;2.13;;;1.93;;
1174;SDS011;576;48.418;10.074;2022-12-07T13:12:13;2.00;;;1.67;;
1174;SDS011;576;48.418;10.074;2022-12-07T13:14:53;1.57;;;1.47;;
1174;SDS011;576;48.418;10.074;2022-12-07T13:20:49;1.53;;;1.43;;
1174;SDS011;576;48.418;10.074;2022-12-07T13:23:25;2.73;;;1.70;;
1174;SDS011;576;48.418;10.074;2022-12-07T13:26:04;2.97;;;1.60;;
1174;SDS011;576;48.418;10.074;2022-12-07T13:28:44;2.30;;;1.50;;
1174;SDS011;576;48.418;10.074;2022-12-07T13:31:16;3.80;;;1.87;;
1174;SDS011;576;48.418;10.074;2022-12-07T13:33:50;1.80;;;1.70;;
1174;SDS011;576;48.418;10.074;2022-12-07T13:36:20;1.50;;;1.40;;
1174;SDS011;576;48.418;10.074;2022-12-07T13:38:54;1.57;;;1.47;;
1174;SDS011;576;48.418;10.074;2022-12-07T13:41:25;3.77;;;1.50;;
1174;SDS011;576;48.418;10.074;2022-12-07T13:43:59;1.80;;;1.70;;
1174;SDS011;576;48.418;10.074;2022-12-07T13:46:35;1.10;;;1.10;;
1174;SDS011;576;48.418;10.074;2022-12-07T13:49:19;1.70;;;1.60;;
1174;SDS011;576;48.418;10.074;2022-12-07T13:51:49;1.80;;;1.70;;
1174;SDS011;576;48.418;10.074;2022-12-07T13:54:19;1.40;;;1.30;;
1174;SDS011;576;48.418;10.074;2022-12-07T13:56:50;1.50;;;1.40;;
1174;SDS011;576;48.418;10.074;2022-12-07T13:59:19;1.70;;;1.60;;
1174;SDS011;576;48.418;10.074;2022-12-07T14:01:51;1.33;;;1.23;;
1174;SDS011;576;48.418;10.074;2022-12-07T14:04:31;1.37;;;1.33;;
1174;SDS011;576;48.418;10.074;2022-12-07T14:07:18;1.83;;;1.63;;
1174;SDS011;576;48.418;10.074;2022-12-07T14:09:55;0.90;;;0.90;;
1174;SDS011;576;48.418;10.074;2022-12-07T14:12:27;1.50;;;1.40;;
1174;SDS011;576;48.418;10.074;2022-12-07T14:14:57;1.40;;;1.30;;
1174;SDS011;576;48.418;10.074;2022-12-07T14:17:27;1.80;;;1.67;;
1174;SDS011;576;48.418;10.074;2022-12-07T14:19:56;1.67;;;1.57;;
1174;SDS011;576;48.418;10.074;2022-12-07T14:22:31;3.40;;;1.60;;
1174;SDS011;576;48.418;10.074;2022-12-07T14:25:16;1.10;;;1.00;;
1174;SDS011;576;48.418;10.074;2022-12-07T14:27:51;1.30;;;1.20;;
1174;SDS011;576;48.418;10.074;2022-12-07T14:30:25;1.73;;;1.53;;
1174;SDS011;576;48.418;10.074;2022-12-07T14:32:57;2.17;;;1.43;;
1174;SDS011;576;48.418;10.074;2022-12-07T14:35:27;1.80;;;1.20;;
1174;SDS011;576;48.418;10.074;2022-12-07T14:37:56;1.83;;;1.73;;
1174;SDS011;576;48.418;10.074;2022-12-07T14:40:26;1.10;;;1.10;;
1174;SDS011;576;48.418;10.074;2022-12-07T14:42:57;1.90;;;1.40;;
1174;SDS011;576;48.418;10.074;2022-12-07T14:45:29;1.47;;;1.37;;
1174;SDS011;576;48.418;10.074;2022-12-07T14:47:57;1.10;;;1.10;;
1174;SDS011;576;48.418;10.074;2022-12-07T14:50:48;1.40;;;1.20;;
1174;SDS011;576;48.418;10.074;2022-12-07T14:53:39;1.70;;;1.60;;
1174;SDS011;576;48.418;10.074;2022-12-07T14:56:10;1.50;;;1.40;;
1174;SDS011;576;48.418;10.074;2022-12-07T14:58:40;1.30;;;1.20;;
1174;SDS011;576;48.418;10.074;2022-12-07T15:01:08;0.87;;;0.87;;
1174;SDS011;576;48.418;10.074;2022-12-07T15:03:37;1.37;;;1.27;;
1174;SDS011;576;48.418;10.074;2022-12-07T15:06:05;1.30;;;1.20;;
1174;SDS011;576;48.418;10.074;2022-12-07T15:08:34;0.87;;;0.87;;
1174;SDS011;576;48.418;10.074;2022-12-07T15:11:02;1.17;;;1.07;;
1174;SDS011;576;48.418;10.074;2022-12-07T15:13:31;1.47;;;1.23;;
1174;SDS011;576;48.418;10.074;2022-12-07T15:16:29;1.20;;;1.10;;
1174;SDS011;576;48.418;10.074;2022-12-07T15:19:18;1.50;;;1.03;;
1174;SDS011;576;48.418;10.074;2022-12-07T15:21:54;1.40;;;1.30;;
1174;SDS011;576;48.418;10.074;2022-12-07T15:24:23;1.13;;;1.07;;
1174;SDS011;576;48.418;10.074;2022-12-07T15:26:51;5.63;;;1.17;;
1174;SDS011;576;48.418;10.074;2022-12-07T15:29:19;1.37;;;0.90;;
1174;SDS011;576;48.418;10.074;2022-12-07T15:31:51;1.50;;;1.40;;
1174;SDS011;576;48.418;10.074;2022-12-07T15:34:23;2.13;;;1.23;;
1174;SDS011;576;48.418;10.074;2022-12-07T15:36:53;1.33;;;1.10;;
1174;SDS011;576;48.418;10.074;2022-12-07T15:39:21;1.33;;;1.23;;
1174;SDS011;576;48.418;10.074;2022-12-07T15:41:49;0.80;;;0.80;;
1174;SDS011;576;48.418;10.074;2022-12-07T15:44:17;1.00;;;1.00;;
1174;SDS011;576;48.418;10.074;2022-12-07T15:47:06;1.17;;;1.07;;
1174;SDS011;576;48.418;10.074;2022-12-07T15:49:34;1.90;;;1.80;;
1174;SDS011;576;48.418;10.074;2022-12-07T15:52:03;1.60;;;0.93;;
1174;SDS011;576;48.418;10.074;2022-12-07T15:54:31;1.43;;;1.33;;
1174;SDS011;576;48.418;10.074;2022-12-07T15:56:59;1.23;;;1.07;;
1174;SDS011;576;48.418;10.074;2022-12-07T15:59:28;0.80;;;0.80;;
1174;SDS011;576;48.418;10.074;2022-12-07T16:01:56;0.80;;;0.80;;
1174;SDS011;576;48.418;10.074;2022-12-07T16:04:27;1.67;;;1.20;;
1174;SDS011;576;48.418;10.074;2022-12-07T16:06:56;1.33;;;1.23;;
1174;SDS011;576;48.418;10.074;2022-12-07T16:09:25;2.13;;;1.00;;
1174;SDS011;576;48.418;10.074;2022-12-07T16:11:53;1.87;;;0.90;;
1174;SDS011;576;48.418;10.074;2022-12-07T16:14:21;1.27;;;1.20;;
1174;SDS011;576;48.418;10.074;2022-12-07T16:16:50;1.00;;;1.00;;